»·PEaware :: ASA466 KSAN-KLAS

ASA466 :: KSAN-KLAS

FLIGHT INFORMATION

Flight Status: Arrived
Operator:
Alaska Airlines
More flights by this operator :: More flights under this callsign
Pilot: Andrew C. (28419)
Aircraft: BOEING 737-800
(B738)
More flights by this aircraft type
Origin: KSAN San Diego Intl-Lindbergh
United States
Destination: KLAS McCarran Intl
United States
More flights between these airports :: More routes between these airports
Route: PADRZ2 CHKNN SEBBY YELAH MISEN KEPEC6
File this flight plan on PilotEdge
Remarks: RMK / SIMBRIEF
Altitude:
(Current/Filed)
35,000ft
Speed:
(Current/Filed)
469kts
Departed: 15-Sep-20 09:22 PM
Arrived: 15-Sep-20 10:13 PM
Distance/Time
Traveled:
225nm/0:51
Distance/Time
To Go:
Arrived

Flight Plot

Page will automatically refresh every two minutes.

Flight plan parsing failed; only flown route is shown


Map Options




Map Legend


Flown Route
Filed Route
Departure Airport
Arrival Airport
Navaid (VOR, NDB)
Fix

Horizontal Profiles

Position Reports

Time Latitude Longitude Heading Altitude Ground
Speed
15-Sep-20 21:01 32.733373 -117.199096 116 27ft 0kts
15-Sep-20 21:02 32.733373 -117.199096 116 27ft 0kts
15-Sep-20 21:03 32.733374 -117.199096 116 26ft 0kts
15-Sep-20 21:04 32.733374 -117.199096 116 26ft 0kts
15-Sep-20 21:05 32.733374 -117.199096 116 26ft 0kts
15-Sep-20 21:06 32.733374 -117.199096 116 26ft 0kts
15-Sep-20 21:07 32.733374 -117.199096 116 26ft 0kts
15-Sep-20 21:08 32.733374 -117.199096 116 26ft 0kts
15-Sep-20 21:09 32.733374 -117.199096 116 26ft 0kts
15-Sep-20 21:10 32.733374 -117.199096 116 26ft 0kts
15-Sep-20 21:11 32.733374 -117.199096 116 26ft 0kts
15-Sep-20 21:12 32.733374 -117.199096 116 26ft 0kts
15-Sep-20 21:13 32.733519 -117.199442 116 26ft 2kts
15-Sep-20 21:14 32.733459 -117.199826 11 26ft 1kts
15-Sep-20 21:15 32.733449 -117.199828 11 26ft 0kts
15-Sep-20 21:16 32.734102 -117.199664 11 25ft 9kts
15-Sep-20 21:17 32.733704 -117.194526 106 26ft 25kts
15-Sep-20 21:18 32.731461 -117.185224 106 24ft 31kts
15-Sep-20 21:19 32.729500 -117.176836 80 24ft 5kts
15-Sep-20 21:20 32.730195 -117.175928 305 26ft 13kts
15-Sep-20 21:21 32.739661 -117.215071 286 1219ft 189kts
15-Sep-20 21:22 32.776584 -117.279031 304 3910ft 259kts
15-Sep-20 21:23 32.821099 -117.351874 306 7389ft 277kts
15-Sep-20 21:24 32.870188 -117.427883 307 10391ft 300kts
15-Sep-20 21:25 32.929108 -117.519598 307 11883ft 366kts
15-Sep-20 21:26 32.992567 -117.619287 308 14877ft 376kts
15-Sep-20 21:27 33.058964 -117.720779 312 17723ft 386kts
15-Sep-20 21:28 33.140906 -117.807963 318 20228ft 397kts
15-Sep-20 21:29 33.235996 -117.880268 348 22397ft 414kts
15-Sep-20 21:30 33.354545 -117.872106 3 24331ft 430kts
15-Sep-20 21:31 33.476369 -117.856440 2 26044ft 442kts
15-Sep-20 21:32 33.601748 -117.840291 2 27574ft 453kts
15-Sep-20 21:33 33.677426 -117.830530 2 28431ft 460kts
15-Sep-20 21:34 33.807352 -117.813711 1 30035ft 463kts
15-Sep-20 21:35 33.936675 -117.796904 1 31847ft 458kts
15-Sep-20 21:36 34.060672 -117.754774 24 33491ft 470kts
15-Sep-20 21:37 34.162613 -117.651800 40 34984ft 477kts
15-Sep-20 21:38 34.254909 -117.529365 44 35161ft 489kts
15-Sep-20 21:39 34.343983 -117.402869 44 35164ft 486kts
15-Sep-20 21:40 34.431767 -117.275159 45 35164ft 486kts
15-Sep-20 21:41 34.519093 -117.146564 45 35165ft 486kts
15-Sep-20 21:42 34.605497 -117.018489 45 35186ft 478kts
15-Sep-20 21:44 34.690935 -116.891362 45 35220ft 479kts
15-Sep-20 21:45 34.776976 -116.762812 45 33599ft 479kts
15-Sep-20 21:46 34.865712 -116.639564 38 30444ft 473kts
15-Sep-20 21:47 34.965318 -116.537885 34 27986ft 449kts
15-Sep-20 21:48 35.062095 -116.443445 34 25598ft 430kts
15-Sep-20 21:49 35.147479 -116.346731 42 24118ft 413kts
15-Sep-20 21:50 35.230449 -116.243449 43 24012ft 413kts
15-Sep-20 21:51 35.310526 -116.143053 43 21702ft 399kts
15-Sep-20 21:52 35.388031 -116.045513 44 19338ft 387kts
15-Sep-20 21:53 35.461294 -115.952825 44 18187ft 372kts
15-Sep-20 21:54 35.535382 -115.859010 45 16128ft 373kts
15-Sep-20 21:55 35.607209 -115.767907 46 13927ft 358kts
15-Sep-20 21:56 35.672722 -115.684223 46 13103ft 314kts
15-Sep-20 21:57 35.733219 -115.608534 38 13046ft 307kts
15-Sep-20 21:57 35.799295 -115.573997 8 13045ft 309kts
15-Sep-20 21:59 35.901312 -115.567499 3 13037ft 309kts
15-Sep-20 22:00 35.978749 -115.528463 53 12860ft 296kts
15-Sep-20 22:00 36.008137 -115.448995 70 11618ft 290kts
15-Sep-20 22:02 36.028841 -115.339721 94 10847ft 272kts
15-Sep-20 22:03 36.021739 -115.245336 96 9591ft 271kts
15-Sep-20 22:03 36.016184 -115.166294 95 8661ft 272kts
15-Sep-20 22:04 36.010600 -115.075067 94 8027ft 249kts
15-Sep-20 22:06 36.004688 -114.974636 93 6917ft 245kts
15-Sep-20 22:06 36.009611 -114.903664 46 5913ft 244kts
15-Sep-20 22:07 36.062707 -114.913381 304 5058ft 204kts
15-Sep-20 22:08 36.073786 -114.982200 269 4057ft 189kts
15-Sep-20 22:09 36.073420 -115.041342 270 3159ft 152kts
15-Sep-20 22:10 36.073667 -115.093094 269 2687ft 151kts
15-Sep-20 22:11 36.073628 -115.141309 270 2095ft 71kts
15-Sep-20 22:12 36.076876 -115.152271 335 2128ft 25kts
15-Sep-20 22:13 36.078613 -115.148626 94 2110ft 21kts
15-Sep-20 22:14 36.078958 -115.142236 40 2087ft 11kts
15-Sep-20 22:15 36.081144 -115.140618 126 2078ft 3kts
15-Sep-20 22:16 36.080865 -115.140197 130 2078ft 0kts

Navigation Log

Ident Type
Flight plan parsing failed, navigation log unavailable